Airfield :







YOU CAN JOIN US ON...

 
LOGIN :

Register | Disclaimer

   EN    FR    IT 

 









Legend :    VFR   Marginal VFR   IFR   Intensive IFR   Very Intensive IFR
Visi :
Ceiling :
>= 8 km
>= 3000ft
5 to 8 km
1000 to 3000 ft
1500m to 5 km
500 to 1000 ft
800 to 1500m
200 to 500 ft
< 800m
< 200 ft
Symbols :   Thunderstorms  Fog  Heavy snow  Heavy precipitations  Wind > 20 kt






- Airport Elevation : 234 ft
- IATA code : PBG


KPBG - Plattsburgh International

CURRENT METAR :
  • 120453Z AUTO 29007G14KT 240V350 10SM BKN055 M06/M14 A3039 RMK AO2 SLP295 T10561139 410061094

EXPIRED METARs :
  • 120353Z AUTO 29007KT 10SM CLR M05/M14 A3035 RMK AO2 SLP281 T10501144
  • 120253Z AUTO 26007G18KT 230V290 10SM FEW049 OVC055 M04/M13 A3031 RMK AO2 UPB20E31SNB0155E08 SLP268 P0000 60000 T10441133 53043

TAF KPBG
Valid from the 12 at 00:00 until the 13 at 00:00 UTC


112331Z 1200/1224 21006KT P6SM -SHSN SCT040 OVC060
TEMPO 1200/1201 25015G25KT 2SM -SHSN BR BLSN BKN025 OVC040
FM120100 27012G22KT P6SM SCT045 BKN070
FM120300 28012G22KT P6SM FEW045 SCT070
FM120900 29008KT P6SM FEW070
FM121800 17005KT P6SM SCT080



MET'MAP, your aeronautical weather chart ! - Copyright ORBIFLY December 2007 - Disclaimer

ORBIFLY MET'MAP TEAM :

Programming & Development : Alexandra Zaïnal
Concept & original design : Baudouin d'Aumeries
Assistance for programming : Marc-Olivier Méhu
Technical & hardware support : Manuel Goepfert

Contact : metmap@orbifly.com




SOURCES & CREDITS :

   NOAA